createdAt,value
2018-07-11T00:00:47.037Z,106.681
2018-07-11T00:01:52.217Z,107.6877
2018-07-11T00:02:57.384Z,106.681
2018-07-11T00:04:02.678Z,106.932
2018-07-11T00:05:07.275Z,108.1105
2018-07-11T00:06:12.423Z,107.4367
2018-07-11T00:07:17.265Z,107.6877
2018-07-11T00:08:22.426Z,107.6877
2018-07-11T00:09:28.031Z,107.1857
2018-07-11T00:10:33.212Z,107.1857
2018-07-11T00:11:38.664Z,108.1105
2018-07-11T00:12:44.356Z,107.6877
2018-07-11T00:13:49.546Z,106.932
2018-07-11T00:14:54.812Z,106.932
2018-07-11T00:16:00.243Z,107.1857
2018-07-11T00:17:05.126Z,107.1857
2018-07-11T00:18:09.726Z,107.1857
2018-07-11T00:19:15.135Z,106.932
2018-07-11T00:20:20.303Z,107.1857
2018-07-11T00:21:26.071Z,107.4367
2018-07-11T00:22:31.515Z,107.1857
2018-07-11T00:23:37.001Z,107.6877
2018-07-11T00:24:42.716Z,108.6152
2018-07-11T00:25:47.593Z,107.4367
2018-07-11T00:26:52.758Z,107.8568
2018-07-11T00:27:58.262Z,108.3615
2018-07-11T00:29:03.146Z,106.932
2018-07-11T00:30:07.759Z,107.8568
2018-07-11T00:31:13.464Z,106.932
2018-07-11T00:32:18.623Z,107.6877
2018-07-11T00:33:24.068Z,106.932
2018-07-11T00:34:44.133Z,106.932
2018-07-11T00:35:49.572Z,107.1857
2018-07-11T00:36:54.986Z,107.4367
2018-07-11T00:38:00.141Z,107.1857
2018-07-11T00:39:05.620Z,106.681
2018-07-11T00:40:11.038Z,106.1763
2018-07-11T00:41:16.194Z,106.1763
2018-07-11T00:42:21.061Z,106.681
2018-07-11T00:43:26.193Z,105.6716
2018-07-11T00:44:31.630Z,106.1763
2018-07-11T00:45:36.764Z,106.4273
2018-07-11T00:46:42.218Z,106.4273
2018-07-11T00:47:47.397Z,106.4273
2018-07-11T00:48:53.088Z,106.4273
2018-07-11T00:49:58.555Z,105.9226
2018-07-11T00:51:03.157Z,105.6716
2018-07-11T00:52:08.026Z,105.6716
2018-07-11T00:53:12.920Z,106.4273
2018-07-11T00:54:18.397Z,106.4273
2018-07-11T00:55:24.363Z,106.4273
2018-07-11T00:56:29.801Z,106.681
2018-07-11T00:57:35.090Z,106.1763
2018-07-11T00:58:40.252Z,106.1763
2018-07-11T00:59:45.135Z,105.6716
2018-07-11T01:00:50.556Z,105.9226
2018-07-11T01:01:56.011Z,105.6716
2018-07-11T01:03:00.620Z,104.9978
2018-07-11T01:04:05.752Z,105.6716
2018-07-11T01:05:10.918Z,105.9226
2018-07-11T01:06:16.077Z,106.1763
2018-07-11T01:07:21.487Z,106.4273
2018-07-11T01:08:26.381Z,107.1857
2018-07-11T01:09:31.497Z,105.1669
2018-07-11T01:10:36.688Z,106.1763
2018-07-11T01:11:42.128Z,106.1763
2018-07-11T01:12:47.972Z,106.4273
2018-07-11T01:13:53.144Z,105.9226
2018-07-11T01:14:58.598Z,105.418
2018-07-11T01:16:03.839Z,105.9226
2018-07-11T01:17:09.003Z,106.1763
2018-07-11T01:18:14.175Z,105.6716
2018-07-11T01:19:19.857Z,104.5777
2018-07-11T01:20:25.028Z,105.418
2018-07-11T01:21:31.114Z,105.6716
2018-07-11T01:22:36.555Z,106.1763
2018-07-11T01:23:42.027Z,106.681
2018-07-11T01:24:47.876Z,105.9226
2018-07-11T01:25:53.345Z,105.9226
2018-07-11T01:26:58.793Z,105.418
2018-07-11T01:28:04.195Z,105.418
2018-07-11T01:29:09.351Z,105.418
2018-07-11T01:30:14.517Z,104.9978
2018-07-11T01:31:20.215Z,105.6716
2018-07-11T01:32:25.395Z,105.6716
2018-07-11T01:33:31.196Z,105.6716
2018-07-11T01:34:36.636Z,104.9978
2018-07-11T01:35:42.075Z,104.324
2018-07-11T01:36:47.659Z,104.9978
2018-07-11T01:37:53.106Z,104.9978
2018-07-11T01:38:58.551Z,104.324
2018-07-11T01:40:03.420Z,103.822
2018-07-11T01:41:08.303Z,104.5777
2018-07-11T01:42:13.746Z,103.5683
2018-07-11T01:43:18.881Z,104.5777
2018-07-11T01:44:24.319Z,104.9978
2018-07-11T01:45:29.900Z,104.9978
2018-07-11T01:46:35.340Z,104.9978
2018-07-11T01:47:40.223Z,104.5777
2018-07-11T01:48:45.461Z,104.5777
2018-07-11T01:49:50.640Z,105.6716
2018-07-11T01:50:56.108Z,105.418
2018-07-11T01:52:01.631Z,105.418
2018-07-11T01:53:06.230Z,104.5777
2018-07-11T01:54:11.674Z,105.1669
2018-07-11T01:55:16.930Z,105.1669
2018-07-11T01:56:22.096Z,105.1669
2018-07-11T01:57:27.924Z,105.418
2018-07-11T01:58:33.088Z,106.4273
2018-07-11T01:59:38.269Z,106.4273
2018-07-11T02:00:43.414Z,106.932
2018-07-11T02:01:48.590Z,106.1763
2018-07-11T02:02:53.762Z,105.418
2018-07-11T02:03:59.338Z,104.324
2018-07-11T02:05:04.216Z,105.9226
2018-07-11T02:06:09.400Z,105.9226
2018-07-11T02:07:14.523Z,105.9226
2018-07-11T02:08:19.692Z,105.9226
2018-07-11T02:09:25.259Z,106.4273
2018-07-11T02:10:30.848Z,106.1763
2018-07-11T02:11:36.315Z,106.4273
2018-07-11T02:12:41.750Z,105.6716
2018-07-11T02:13:47.184Z,104.9978
2018-07-11T02:14:52.339Z,105.9226
2018-07-11T02:15:57.552Z,105.9226
2018-07-11T02:17:02.714Z,106.1763
2018-07-11T02:18:08.156Z,105.9226
2018-07-11T02:19:13.610Z,106.681
2018-07-11T02:20:18.797Z,106.1763
2018-07-11T02:21:23.967Z,105.6716
2018-07-11T02:22:29.809Z,105.9226
2018-07-11T02:23:34.967Z,106.681
2018-07-11T02:24:41.116Z,106.4273
2018-07-11T02:25:46.558Z,106.932
2018-07-11T02:26:52.016Z,105.9226
2018-07-11T02:27:57.441Z,106.4273
2018-07-11T02:29:02.895Z,105.9226
2018-07-11T02:30:07.513Z,106.681
2018-07-11T02:31:12.940Z,106.4273
2018-07-11T02:32:18.398Z,105.418
2018-07-11T02:33:23.837Z,106.932
2018-07-11T02:34:29.103Z,105.418
2018-07-11T02:35:34.554Z,106.4273
2018-07-11T02:36:40.487Z,106.932
2018-07-11T02:37:45.660Z,106.4273
2018-07-11T02:38:51.099Z,105.9226
2018-07-11T02:39:56.804Z,106.4273
2018-07-11T02:41:01.686Z,106.681
2018-07-11T02:42:06.293Z,106.681
2018-07-11T02:43:11.538Z,106.4273
2018-07-11T02:44:17.002Z,107.4367
2018-07-11T02:45:21.899Z,104.9978
2018-07-11T02:46:27.633Z,105.418
2018-07-11T02:47:33.083Z,105.6716
2018-07-11T02:48:38.697Z,105.418
2018-07-11T02:49:43.283Z,105.9226
2018-07-11T02:50:48.747Z,105.6716
2018-07-11T02:51:54.624Z,104.5777
2018-07-11T02:53:00.085Z,105.418
2018-07-11T02:54:05.582Z,104.9978
2018-07-11T02:55:10.729Z,104.5777
2018-07-11T02:56:15.888Z,104.5777
2018-07-11T02:57:20.763Z,104.324
2018-07-11T02:58:26.056Z,105.418
2018-07-11T02:59:31.212Z,105.9226
2018-07-11T03:00:36.908Z,105.418
2018-07-11T03:01:42.079Z,104.5777
2018-07-11T03:02:47.529Z,104.324
2018-07-11T03:03:53.227Z,102.3925
2018-07-11T03:04:58.674Z,103.3173
2018-07-11T03:06:03.288Z,104.324
2018-07-11T03:07:08.986Z,104.5777
2018-07-11T03:08:14.144Z,104.073
2018-07-11T03:09:19.601Z,103.5683
2018-07-11T03:10:25.130Z,104.5777
2018-07-11T03:11:30.287Z,105.1669
2018-07-11T03:12:36.135Z,105.1669
2018-07-11T03:13:41.576Z,104.5777
2018-07-11T03:14:47.014Z,104.073
2018-07-11T03:15:52.426Z,104.9978
2018-07-11T03:16:57.328Z,105.1669
2018-07-11T03:18:02.198Z,104.073
2018-07-11T03:19:07.628Z,104.5777
2018-07-11T03:20:12.514Z,105.6716
2018-07-11T03:21:17.944Z,105.9226
2018-07-11T03:22:23.481Z,104.5777
2018-07-11T03:23:28.901Z,104.9978
2018-07-11T03:24:34.018Z,104.5777
2018-07-11T03:25:38.876Z,104.324
2018-07-11T03:26:43.733Z,105.1669
2018-07-11T03:27:49.522Z,105.1669
2018-07-11T03:28:54.370Z,104.9978
2018-07-11T03:29:59.229Z,104.324
2018-07-11T03:31:04.442Z,104.9978
2018-07-11T03:32:09.587Z,103.3173
2018-07-11T03:33:15.061Z,103.822
2018-07-11T03:34:20.432Z,104.5777
2018-07-11T03:35:25.851Z,104.9978
2018-07-11T03:36:31.360Z,104.324
2018-07-11T03:37:36.501Z,104.324
2018-07-11T03:38:41.936Z,104.9978
2018-07-11T03:39:47.854Z,105.1669
2018-07-11T03:40:53.005Z,104.9978
2018-07-11T03:41:58.143Z,104.9978
2018-07-11T03:43:03.300Z,105.418
2018-07-11T03:44:08.442Z,104.9978
2018-07-11T03:45:13.864Z,104.9978
2018-07-11T03:46:19.537Z,105.418
2018-07-11T03:47:25.174Z,105.418
2018-07-11T03:48:30.302Z,105.1669
2018-07-11T03:49:34.883Z,105.418
2018-07-11T03:50:40.323Z,104.9978
2018-07-11T03:51:45.446Z,105.1669
2018-07-11T03:52:50.865Z,105.6716
2018-07-11T03:53:56.416Z,105.6716
2018-07-11T03:55:01.553Z,105.418
2018-07-11T03:56:06.979Z,105.6716
2018-07-11T03:57:11.554Z,104.073
2018-07-11T03:58:17.122Z,104.5777
2018-07-11T03:59:22.543Z,104.5777
2018-07-11T04:00:28.045Z,104.9978
2018-07-11T04:01:32.916Z,104.5777
2018-07-11T04:02:38.042Z,104.324
2018-07-11T04:03:43.818Z,104.9978
2018-07-11T04:04:49.368Z,104.073
2018-07-11T04:05:54.906Z,103.822
2018-07-11T04:07:00.579Z,104.073
2018-07-11T04:08:05.455Z,104.073
2018-07-11T04:09:09.798Z,103.822
2018-07-11T04:10:15.470Z,103.822
2018-07-11T04:11:20.892Z,103.3173
2018-07-11T04:12:26.630Z,104.073
2018-07-11T04:13:31.773Z,104.5777
2018-07-11T04:14:36.946Z,103.5683
2018-07-11T04:15:42.755Z,104.324
2018-07-11T04:16:47.339Z,103.3173
2018-07-11T04:17:52.767Z,104.073
2018-07-11T04:18:58.540Z,104.073
2018-07-11T04:20:02.876Z,103.822
2018-07-11T04:21:07.168Z,103.822
2018-07-11T04:22:12.140Z,102.8126
2018-07-11T04:23:17.382Z,103.822
2018-07-11T04:24:22.820Z,104.073
2018-07-11T04:25:28.840Z,103.3173
2018-07-11T04:26:34.261Z,102.8972
2018-07-11T04:27:39.477Z,104.324
2018-07-11T04:28:44.764Z,102.8972
2018-07-11T04:29:49.655Z,103.822
2018-07-11T04:30:55.329Z,103.3173
2018-07-11T04:32:00.757Z,104.073
2018-07-11T04:33:05.323Z,103.3173
2018-07-11T04:34:10.833Z,102.6435
2018-07-11T04:35:15.982Z,102.8972
2018-07-11T04:36:21.124Z,103.3173
2018-07-11T04:37:26.374Z,103.822
2018-07-11T04:38:31.238Z,102.6435
2018-07-11T04:39:36.909Z,103.5683
2018-07-11T04:40:42.048Z,102.8972
2018-07-11T04:41:46.866Z,102.8972
2018-07-11T04:42:52.326Z,101.6342
2018-07-11T04:43:57.911Z,102.3925
2018-07-11T04:45:02.714Z,102.1388
2018-07-11T04:46:07.595Z,101.6342
2018-07-11T04:47:13.110Z,102.3925
2018-07-11T04:48:18.244Z,103.3173
2018-07-11T04:49:23.857Z,102.8972
2018-07-11T04:50:28.943Z,103.1482
2018-07-11T04:51:34.758Z,103.1482
2018-07-11T04:52:40.096Z,102.3925
2018-07-11T04:53:45.524Z,102.8972
2018-07-11T04:54:51.196Z,102.6435
2018-07-11T04:55:57.020Z,102.8972
2018-07-11T04:57:02.371Z,101.8878
2018-07-11T04:58:07.494Z,102.3925
2018-07-11T04:59:12.949Z,102.6435
2018-07-11T05:00:18.367Z,102.3925
2018-07-11T05:01:23.760Z,102.1388
2018-07-11T05:02:29.181Z,102.3925
2018-07-11T05:03:34.574Z,102.6435
2018-07-11T05:04:39.799Z,101.6342
2018-07-11T05:05:44.964Z,102.3925
2018-07-11T05:06:50.351Z,103.1482
2018-07-11T05:07:54.930Z,102.3925
2018-07-11T05:09:00.359Z,102.6435
2018-07-11T05:10:05.218Z,101.6342
2018-07-11T05:11:10.592Z,102.1388
2018-07-11T05:12:16.225Z,102.1388
2018-07-11T05:13:21.640Z,101.6342
2018-07-11T05:14:26.506Z,101.6342
2018-07-11T05:15:31.722Z,102.1388
2018-07-11T05:16:37.303Z,102.3925
2018-07-11T05:17:42.439Z,102.8972
2018-07-11T05:25:43.269Z,101.3831
2018-07-11T05:26:49.402Z,100.963
2018-07-11T05:27:54.817Z,101.1295
2018-07-11T05:29:00.240Z,101.3831
2018-07-11T05:30:05.303Z,101.8878
2018-07-11T05:31:10.518Z,102.3925
2018-07-11T05:32:15.372Z,102.1388
2018-07-11T05:33:20.229Z,102.1388
2018-07-11T05:34:25.081Z,101.8878
2018-07-11T05:35:30.196Z,101.8878
2018-07-11T05:36:35.482Z,102.1388
2018-07-11T05:37:40.351Z,101.1295
2018-07-11T05:38:45.408Z,102.1388
2018-07-11T05:39:51.285Z,100.963
2018-07-11T05:40:56.709Z,100.7094
2018-07-11T05:42:01.863Z,100.7094
2018-07-11T05:43:07.038Z,100.4583
2018-07-11T05:44:12.469Z,99.9537
2018-07-11T05:45:17.681Z,100.4583
2018-07-11T05:46:23.199Z,99.7026
2018-07-11T05:47:28.617Z,98.9443
2018-07-11T05:48:34.062Z,100.4583
2018-07-11T05:49:39.034Z,100.2073
2018-07-11T05:50:44.174Z,100.7094
2018-07-11T05:51:49.470Z,99.9537
2018-07-11T05:52:54.920Z,100.2073
2018-07-11T05:54:00.224Z,99.9537
2018-07-11T05:55:05.670Z,100.2073
2018-07-11T05:56:10.890Z,99.7026
2018-07-11T05:57:15.962Z,99.9537
2018-07-11T05:58:21.636Z,100.2073
2018-07-11T05:59:27.322Z,99.7026
2018-07-11T06:00:33.198Z,100.2073
2018-07-11T06:01:38.109Z,100.7094
2018-07-11T06:02:43.825Z,99.9537
2018-07-11T06:03:49.123Z,99.7026
2018-07-11T06:04:54.547Z,100.4583
2018-07-11T06:05:59.693Z,99.449
2018-07-11T06:07:05.552Z,99.9537
2018-07-11T06:08:10.422Z,99.9537
2018-07-11T06:09:15.556Z,100.7094
2018-07-11T06:10:21.025Z,100.2073
2018-07-11T06:11:26.158Z,100.7094
2018-07-11T06:12:31.855Z,99.9537
2018-07-11T06:13:37.208Z,100.2073
2018-07-11T06:14:42.491Z,101.1295
2018-07-11T06:15:47.719Z,100.2073
2018-07-11T06:16:53.277Z,100.963
2018-07-11T06:17:58.130Z,99.7026
2018-07-11T06:19:02.713Z,100.7094
2018-07-11T06:20:07.901Z,100.4583
2018-07-11T06:21:12.844Z,100.7094
2018-07-11T06:22:18.292Z,100.7094
2018-07-11T06:23:23.425Z,100.963
2018-07-11T06:24:29.158Z,100.7094
2018-07-11T06:25:33.767Z,99.7026
2018-07-11T06:26:39.071Z,100.7094
2018-07-11T06:27:43.680Z,100.2073
2018-07-11T06:28:48.950Z,100.4583
2018-07-11T06:29:54.083Z,99.7026
2018-07-11T06:30:59.235Z,99.9537
2018-07-11T06:32:04.373Z,99.9537
2018-07-11T06:33:09.534Z,99.7026
2018-07-11T06:34:13.805Z,99.7026
2018-07-11T06:35:18.938Z,100.2073
2018-07-11T06:36:23.900Z,99.449
2018-07-11T06:37:29.548Z,99.449
2018-07-11T06:38:34.978Z,99.1979
2018-07-11T06:39:40.591Z,98.6933
2018-07-11T06:40:46.020Z,99.449
2018-07-11T06:41:51.442Z,99.9537
2018-07-11T06:42:56.565Z,99.449
2018-07-11T06:44:02.227Z,98.6933
2018-07-11T06:45:07.182Z,99.1979
2018-07-11T06:46:13.059Z,99.449
2018-07-11T06:47:18.248Z,99.7026
2018-07-11T06:48:23.399Z,99.449
2018-07-11T06:49:29.297Z,100.4583
2018-07-11T06:50:34.174Z,99.7026
2018-07-11T06:51:39.411Z,98.3577
2018-07-11T06:52:44.569Z,99.1979
2018-07-11T06:53:50.033Z,98.3577
2018-07-11T07:03:35.162Z,99.1979
2018-07-11T07:04:40.815Z,98.3577
2018-07-11T07:05:46.333Z,98.3577
2018-07-11T07:06:52.008Z,98.6933
2018-07-11T07:07:57.082Z,98.5242
2018-07-11T07:09:01.789Z,97.853
2018-07-11T07:10:07.596Z,98.3577
2018-07-11T07:11:13.024Z,98.5242
2018-07-11T07:12:18.253Z,98.9443
2018-07-11T07:13:23.267Z,99.449
2018-07-11T07:14:28.693Z,98.6933
2018-07-11T07:15:34.412Z,98.6933
2018-07-11T07:16:40.400Z,99.1979
2018-07-11T07:17:45.998Z,98.9443
2018-07-11T07:18:51.576Z,99.1979
2018-07-11T07:19:57.056Z,99.449
2018-07-11T07:21:02.484Z,98.9443
2018-07-11T07:22:07.616Z,99.7026
2018-07-11T07:23:12.261Z,99.449
2018-07-11T07:24:17.398Z,99.7026
2018-07-11T07:25:23.440Z,98.9443
2018-07-11T07:26:28.976Z,100.4583
2018-07-11T07:27:34.143Z,99.449
2018-07-11T07:28:39.544Z,99.9537
2018-07-11T07:29:44.717Z,100.2073
2018-07-11T07:30:50.690Z,99.7026
2018-07-11T07:31:56.115Z,100.4583
2018-07-11T07:33:00.706Z,99.9537
2018-07-11T07:34:06.204Z,99.9537
2018-07-11T07:35:11.116Z,100.2073
2018-07-11T07:36:16.754Z,99.9537
2018-07-11T07:37:22.445Z,100.4583
2018-07-11T07:38:27.616Z,100.7094
2018-07-11T07:39:33.546Z,99.9537
2018-07-11T07:40:38.128Z,100.4583
2018-07-11T07:41:43.000Z,100.7094
2018-07-11T07:42:48.444Z,99.9537
2018-07-11T07:43:54.765Z,100.4583
2018-07-11T07:45:00.189Z,99.9537
2018-07-11T07:46:05.381Z,99.7026
2018-07-11T07:47:11.635Z,100.4583
2018-07-11T07:48:17.284Z,100.7094
2018-07-11T07:49:22.424Z,100.2073
2018-07-11T07:50:27.584Z,100.4583
2018-07-11T07:51:32.431Z,100.4583
2018-07-11T07:52:37.576Z,100.7094
2018-07-11T07:53:42.727Z,100.8785
2018-07-11T07:54:48.418Z,101.6342
2018-07-11T07:55:53.853Z,100.8785
2018-07-11T07:56:58.995Z,101.3831
2018-07-11T07:58:04.776Z,101.6342
2018-07-11T07:59:09.711Z,100.8785
2018-07-11T08:00:14.858Z,100.8785
2018-07-11T08:01:20.405Z,100.8785
2018-07-11T08:02:25.265Z,100.8785
2018-07-11T08:03:30.800Z,101.3831
2018-07-11T08:04:35.978Z,101.3831
2018-07-11T08:05:41.260Z,101.1295
2018-07-11T08:06:46.940Z,100.8785
2018-07-11T08:07:52.131Z,101.1295
2018-07-11T08:08:57.341Z,101.8878
2018-07-11T08:10:02.888Z,101.3831
2018-07-11T08:11:07.754Z,101.6342
2018-07-11T08:12:13.252Z,100.7094
2018-07-11T08:13:18.175Z,101.8878
2018-07-11T08:14:23.293Z,102.3925
2018-07-11T08:15:28.986Z,101.3831
2018-07-11T08:16:34.124Z,101.8878
2018-07-11T08:17:39.037Z,101.3831
2018-07-11T08:18:44.064Z,101.8878
2018-07-11T08:19:49.221Z,101.3831
2018-07-11T08:20:54.416Z,101.8878
2018-07-11T08:21:59.209Z,100.2073
2018-07-11T08:23:03.826Z,100.8785
2018-07-11T08:24:08.982Z,100.8785
2018-07-11T08:25:14.113Z,101.3831
2018-07-11T08:26:19.553Z,100.8785
2018-07-11T08:27:26.524Z,100.4583
2018-07-11T08:28:31.823Z,100.7094
2018-07-11T08:29:37.580Z,101.6342
2018-07-11T08:30:43.353Z,101.8878
2018-07-11T08:31:48.796Z,101.6342
2018-07-11T08:32:54.242Z,101.3831
2018-07-11T08:33:59.691Z,101.6342
2018-07-11T08:35:04.644Z,102.3925
2018-07-11T08:36:09.884Z,102.1388
2018-07-11T08:37:15.097Z,101.6342
2018-07-11T08:38:20.527Z,101.6342
2018-07-11T08:39:40.892Z,102.1388
2018-07-11T08:40:46.125Z,102.3925
2018-07-11T08:41:51.572Z,101.8878
2018-07-11T08:42:57.486Z,102.6435
2018-07-11T08:44:02.358Z,102.1388
2018-07-11T08:45:07.247Z,102.8972
2018-07-11T08:46:12.934Z,102.8972
2018-07-11T08:47:18.387Z,102.8972
2018-07-11T08:48:24.269Z,102.6435
2018-07-11T08:49:29.684Z,103.1482
2018-07-11T08:50:34.836Z,103.3173
2018-07-11T08:51:40.329Z,103.1482
2018-07-11T08:52:45.617Z,103.822
2018-07-11T08:53:50.547Z,102.8972
2018-07-11T08:54:57.046Z,103.3173
2018-07-11T08:56:02.036Z,103.3173
2018-07-11T08:57:06.918Z,103.3173
2018-07-11T08:58:12.910Z,103.1482
2018-07-11T08:59:18.064Z,102.6435
2018-07-11T09:00:23.595Z,103.1482
2018-07-11T09:01:28.802Z,103.1482
2018-07-11T09:02:33.954Z,103.1482
2018-07-11T09:03:39.434Z,102.1388
2018-07-11T09:04:44.872Z,101.6342
2018-07-11T09:05:50.012Z,101.8878
2018-07-11T09:06:54.963Z,102.1388
2018-07-11T09:08:00.100Z,102.3925
2018-07-11T09:09:05.248Z,101.8878
2018-07-11T09:10:09.826Z,102.6435
2018-07-11T09:11:14.999Z,102.1388
2018-07-11T09:12:20.228Z,101.8878
2018-07-11T09:13:25.370Z,102.8972
2018-07-11T09:14:30.546Z,102.8972
2018-07-11T09:15:36.133Z,102.3925
2018-07-11T09:16:40.706Z,101.1295
2018-07-11T09:17:45.382Z,102.3925
2018-07-11T09:18:51.612Z,102.8972
2018-07-11T09:19:56.788Z,102.3925
2018-07-11T09:21:02.351Z,102.3925
2018-07-11T09:22:07.927Z,102.8972
2018-07-11T09:23:13.354Z,102.3925
2018-07-11T09:24:18.712Z,101.8878
2018-07-11T09:25:24.699Z,102.1388
2018-07-11T09:26:30.146Z,102.3925
2018-07-11T09:27:35.325Z,102.1388
2018-07-11T09:28:41.088Z,102.3925
2018-07-11T09:29:46.230Z,102.1388
2018-07-11T09:30:52.104Z,102.3925
2018-07-11T09:31:57.019Z,102.3925
2018-07-11T09:33:01.869Z,102.3925
2018-07-11T09:34:07.090Z,102.3925
2018-07-11T09:35:11.984Z,102.8972
2018-07-11T09:36:17.415Z,103.1482
2018-07-11T09:37:22.813Z,102.6435
2018-07-11T09:38:28.244Z,103.5683
2018-07-11T09:39:33.638Z,103.5683
2018-07-11T09:40:38.955Z,102.8972
2018-07-11T09:41:43.642Z,104.073
2018-07-11T09:42:48.753Z,103.3173
2018-07-11T09:43:54.153Z,103.1482
2018-07-11T09:44:59.409Z,103.3173
2018-07-11T09:46:04.099Z,103.5683
2018-07-11T09:47:09.375Z,103.3173
2018-07-11T09:48:14.515Z,103.1482
2018-07-11T09:49:20.192Z,104.073
2018-07-11T09:50:25.485Z,104.073
2018-07-11T09:51:31.098Z,103.5683
2018-07-11T09:52:36.520Z,103.5683
2018-07-11T09:53:41.247Z,103.822
2018-07-11T09:54:47.467Z,103.822
2018-07-11T09:55:52.675Z,104.073
2018-07-11T09:56:58.169Z,104.073
2018-07-11T09:58:02.481Z,104.073
2018-07-11T09:59:07.778Z,103.822
2018-07-11T10:00:12.954Z,104.9978
2018-07-11T10:01:18.847Z,104.324
2018-07-11T10:02:24.039Z,104.073
2018-07-11T10:03:29.938Z,104.324
2018-07-11T10:04:35.143Z,103.822
2018-07-11T10:05:40.338Z,103.822
2018-07-11T10:06:46.126Z,103.5683
2018-07-11T10:07:51.307Z,103.822
2018-07-11T10:08:56.743Z,104.5777
2018-07-11T10:10:02.452Z,104.324
2018-07-11T10:11:06.788Z,104.324
2018-07-11T10:12:10.839Z,103.822
2018-07-11T10:13:16.544Z,104.073
2018-07-11T10:14:21.490Z,104.9978
2018-07-11T10:15:27.054Z,104.324
2018-07-11T10:16:32.557Z,104.5777
2018-07-11T10:17:37.706Z,105.2489
2018-07-11T10:18:43.142Z,104.5777
2018-07-11T10:19:48.447Z,104.9978
2018-07-11T10:20:53.526Z,104.324
2018-07-11T10:21:58.304Z,104.9978
2018-07-11T10:23:03.799Z,104.9978
2018-07-11T10:24:09.061Z,104.9978
2018-07-11T10:25:13.932Z,105.7535
2018-07-11T10:26:19.103Z,104.5777
2018-07-11T10:27:25.285Z,105.7535
2018-07-11T10:28:29.960Z,106.1763
2018-07-11T10:29:35.210Z,105.7535
2018-07-11T10:30:40.626Z,105.9226
2018-07-11T10:31:45.576Z,105.5025
2018-07-11T10:32:50.774Z,106.1763
2018-07-11T10:33:56.534Z,106.1763
2018-07-11T10:35:01.434Z,106.681
2018-07-11T10:36:06.057Z,106.681
2018-07-11T10:37:11.004Z,105.9226
2018-07-11T10:38:16.268Z,106.932
2018-07-11T10:39:21.516Z,106.681
2018-07-11T10:40:27.085Z,106.681
2018-07-11T10:41:32.292Z,106.681
2018-07-11T10:42:37.459Z,106.4273
2018-07-11T10:43:42.601Z,107.4367
2018-07-11T10:44:47.796Z,106.681
2018-07-11T10:45:52.919Z,105.7535
2018-07-11T10:46:58.379Z,106.4273
2018-07-11T10:48:03.012Z,106.4273
2018-07-11T10:49:08.435Z,106.681
2018-07-11T10:50:13.304Z,106.1763
2018-07-11T10:51:18.205Z,106.932
2018-07-11T10:52:23.884Z,107.1857
2018-07-11T10:53:29.339Z,107.9414
2018-07-11T10:54:34.562Z,107.6877
2018-07-11T10:55:39.816Z,107.1857
2018-07-11T10:56:45.273Z,107.1857
2018-07-11T10:57:51.399Z,107.6877
2018-07-11T10:58:56.824Z,107.1857
2018-07-11T11:00:01.704Z,107.6877
2018-07-11T11:01:07.520Z,107.1857
2018-07-11T11:02:13.036Z,107.1857
2018-07-11T11:03:17.341Z,106.681
2018-07-11T11:04:22.487Z,106.4273
2018-07-11T11:05:27.956Z,105.9226
2018-07-11T11:06:33.952Z,107.1857
2018-07-11T11:07:39.115Z,105.9226
2018-07-11T11:08:43.513Z,106.1763
2018-07-11T11:09:48.915Z,106.932
2018-07-11T11:10:54.360Z,107.4367
2018-07-11T11:11:59.630Z,107.9414
2018-07-11T11:13:04.787Z,108.3615
2018-07-11T11:14:09.961Z,107.6877
2018-07-11T11:15:15.124Z,107.9414
2018-07-11T11:16:20.816Z,108.195
2018-07-11T11:17:26.008Z,108.6152
2018-07-11T11:18:31.772Z,107.1857
2018-07-11T11:19:37.255Z,107.9414
2018-07-11T11:20:42.729Z,107.9414
2018-07-11T11:21:48.282Z,108.3615
2018-07-11T11:22:53.456Z,107.6877
2018-07-11T11:23:58.633Z,108.3615
2018-07-11T11:25:04.007Z,108.3615
2018-07-11T11:26:09.167Z,108.3615
2018-07-11T11:27:14.365Z,108.6152
2018-07-11T11:28:20.157Z,108.6152
2018-07-11T11:29:25.065Z,107.6877
2018-07-11T11:30:30.234Z,108.1105
2018-07-11T11:31:35.437Z,108.6152
2018-07-11T11:32:40.323Z,108.8662
2018-07-11T11:33:45.675Z,108.6152
2018-07-11T11:34:51.238Z,108.3615
2018-07-11T11:35:56.671Z,108.1105
2018-07-11T11:37:02.357Z,109.1199
2018-07-11T11:38:07.509Z,109.1199
2018-07-11T11:39:12.674Z,108.1105
2018-07-11T11:40:18.196Z,108.8662
2018-07-11T11:41:23.413Z,108.3615
2018-07-11T11:42:31.463Z,108.8662
2018-07-11T11:43:37.535Z,108.8662
2018-07-11T11:44:42.989Z,108.8662
2018-07-11T11:45:49.009Z,108.8662
2018-07-11T11:46:53.744Z,108.8662
2018-07-11T11:48:00.705Z,109.1199
2018-07-11T11:49:06.200Z,109.6245
2018-07-11T11:50:11.643Z,109.6245
2018-07-11T11:51:17.398Z,109.3709
2018-07-11T11:52:22.986Z,108.1105
2018-07-11T11:53:28.178Z,108.6152
2018-07-11T11:54:33.938Z,108.6152
2018-07-11T11:55:39.304Z,108.6152
2018-07-11T11:56:43.922Z,108.6152
2018-07-11T11:57:49.488Z,108.6152
2018-07-11T11:58:54.355Z,107.6877
2018-07-11T11:59:59.543Z,108.1105
2018-07-11T12:01:04.556Z,107.6877
2018-07-11T12:02:09.987Z,108.6152
2018-07-11T12:03:14.861Z,107.4367
2018-07-11T12:04:20.556Z,108.1105
2018-07-11T12:05:25.786Z,108.1105
2018-07-11T12:06:31.011Z,108.3615
2018-07-11T12:07:35.610Z,107.6877
2018-07-11T12:08:41.416Z,108.1105
2018-07-11T12:09:46.624Z,108.3615
2018-07-11T12:10:52.066Z,108.6152
2018-07-11T12:11:57.214Z,109.3709
2018-07-11T12:13:02.269Z,109.1199
2018-07-11T12:14:07.724Z,109.3709
2018-07-11T12:15:12.885Z,110.1292
2018-07-11T12:16:18.050Z,109.3709
2018-07-11T12:17:23.507Z,109.6245
2018-07-11T12:18:28.651Z,108.8662
2018-07-11T12:19:33.962Z,109.3709
2018-07-11T12:20:38.831Z,108.8662
2018-07-11T12:21:44.251Z,109.3709
2018-07-11T12:22:49.510Z,108.8662
2018-07-11T12:23:55.329Z,108.6152
2018-07-11T12:25:01.228Z,109.8756
2018-07-11T12:26:06.463Z,109.1199
2018-07-11T12:27:11.648Z,109.6245
2018-07-11T12:28:17.492Z,109.3709
2018-07-11T12:29:22.644Z,109.3709
2018-07-11T12:30:28.721Z,108.8662
2018-07-11T12:31:33.947Z,109.6245
2018-07-11T12:32:39.303Z,109.6245
2018-07-11T12:33:44.664Z,109.3709
2018-07-11T12:34:49.915Z,109.6245
2018-07-11T12:35:55.242Z,109.1199
2018-07-11T12:37:00.409Z,110.5493
2018-07-11T12:38:05.038Z,109.8756
2018-07-11T12:39:09.744Z,110.1292
2018-07-11T12:40:15.905Z,110.3802
2018-07-11T12:41:21.667Z,110.3802
2018-07-11T12:42:27.862Z,110.5493
2018-07-11T12:43:33.432Z,110.803
2018-07-11T12:44:39.207Z,111.054
2018-07-11T12:45:44.058Z,110.5493
2018-07-11T12:46:49.023Z,111.054
2018-07-11T12:47:54.625Z,111.8124
2018-07-11T12:49:00.677Z,111.3051
2018-07-11T12:50:05.707Z,111.054
2018-07-11T12:51:10.986Z,111.5587
2018-07-11T12:52:15.838Z,111.054
2018-07-11T12:53:21.277Z,111.054
2018-07-11T12:54:41.331Z,111.3051
2018-07-11T12:55:46.264Z,111.054
2018-07-11T12:56:51.503Z,111.3051
2018-07-11T12:57:56.633Z,111.054
2018-07-11T12:59:02.100Z,111.5587
2018-07-11T13:00:07.097Z,111.054
2018-07-11T13:01:12.501Z,112.3171
2018-07-11T13:02:18.184Z,111.3051
2018-07-11T13:03:24.053Z,111.3051
2018-07-11T13:04:29.661Z,111.5587
2018-07-11T13:05:34.556Z,111.8124
2018-07-11T13:06:40.466Z,111.5587
2018-07-11T13:07:45.085Z,111.3051
2018-07-11T13:08:50.018Z,111.3051
2018-07-11T13:09:55.424Z,111.054